Time;durP1;ratioP1;P1;durP2;ratioP2;P2;SDS_P1;SDS_P2;PMS_P1;PMS_P2;Temp;Humidity;BMP_temperature;BMP_pressure;BME280_temperature;BME280_humidity;BME280_pressure;Samples;Min_cycle;Max_cycle;Signal;HPM_P1;HPM_P2
2022/12/24 00:00:36;;;;;;;48.95;22.70;;;8.40;99.90;;;;;;4952965;28;20046;-74
2022/12/24 00:03:22;;;;;;;57.22;24.88;;;8.50;99.90;;;;;;4952589;28;20046;-74
2022/12/24 00:06:15;;;;;;;45.92;23.35;;;8.60;99.90;;;;;;4952348;28;20405;-74
2022/12/24 00:09:01;;;;;;;59.85;24.25;;;8.70;99.90;;;;;;4939306;28;20050;-75
2022/12/24 00:11:47;;;;;;;58.80;24.58;;;8.80;99.90;;;;;;4956811;28;20512;-74
2022/12/24 00:14:33;;;;;;;55.65;23.88;;;8.80;99.90;;;;;;4949981;28;20087;-74
2022/12/24 00:17:19;;;;;;;46.42;23.20;;;8.80;99.90;;;;;;4952301;28;20061;-75
2022/12/24 00:20:05;;;;;;;54.22;23.95;;;8.80;99.90;;;;;;4942758;28;20077;-74
2022/12/24 00:22:51;;;;;;;44.58;23.00;;;8.80;99.90;;;;;;4953499;28;20429;-74
2022/12/24 00:25:37;;;;;;;44.00;23.08;;;8.90;99.90;;;;;;4950379;28;20043;-75
2022/12/24 00:28:23;;;;;;;50.08;23.92;;;8.90;99.90;;;;;;4941190;28;20405;-75
2022/12/24 00:31:12;;;;;;;47.70;24.90;;;8.90;99.90;;;;;;4949362;28;20608;-75
2022/12/24 00:33:58;;;;;;;50.05;25.23;;;8.90;99.90;;;;;;4953294;28;20409;-74
2022/12/24 00:36:44;;;;;;;47.72;24.88;;;8.90;99.90;;;;;;4955719;28;20562;-75
2022/12/24 00:39:30;;;;;;;60.55;28.25;;;8.90;99.90;;;;;;4936866;28;20047;-75
2022/12/24 00:42:16;;;;;;;58.85;27.88;;;8.90;99.90;;;;;;4967030;28;20042;-75
2022/12/24 00:45:02;;;;;;;64.22;29.23;;;8.90;99.90;;;;;;4952524;28;20409;-75
2022/12/24 00:47:48;;;;;;;61.90;26.85;;;8.90;99.90;;;;;;4939193;28;20047;-75
2022/12/24 00:50:34;;;;;;;64.97;27.27;;;8.90;99.90;;;;;;4950334;28;20042;-75
2022/12/24 00:53:19;;;;;;;65.85;26.10;;;8.90;99.90;;;;;;4953625;28;20047;-74
2022/12/24 00:56:06;;;;;;;64.88;25.08;;;8.90;99.90;;;;;;4955085;28;20085;-75
2022/12/24 00:58:53;;;;;;;53.05;24.13;;;8.90;99.90;;;;;;4963898;28;20079;-75
2022/12/24 01:01:39;;;;;;;43.53;21.58;;;8.90;99.90;;;;;;4952750;28;20141;-74
2022/12/24 01:07:29;;;;;;;35.10;18.30;;;8.90;99.90;;;;;;4952780;28;20088;-74
2022/12/24 01:10:19;;;;;;;27.75;14.95;;;8.90;99.90;;;;;;4956277;28;20486;-75
2022/12/24 01:13:04;;;;;;;31.85;15.50;;;8.90;99.90;;;;;;4957311;28;20042;-75
2022/12/24 01:15:51;;;;;;;21.92;12.93;;;8.90;99.90;;;;;;4954152;28;20054;-75
2022/12/24 01:18:37;;;;;;;23.88;12.85;;;9.00;99.90;;;;;;4955779;28;20081;-76
2022/12/24 01:21:23;;;;;;;18.88;12.07;;;8.90;99.90;;;;;;4955792;28;20047;-75
2022/12/24 01:24:14;;;;;;;21.95;12.50;;;8.90;99.90;;;;;;4956667;28;20516;-75
2022/12/24 01:27:00;;;;;;;21.77;12.18;;;8.90;99.90;;;;;;4956244;28;20521;-75
2022/12/24 01:29:46;;;;;;;21.92;11.98;;;8.90;99.90;;;;;;4955301;28;20061;-75
2022/12/24 01:32:31;;;;;;;25.05;13.27;;;8.90;99.90;;;;;;4956655;28;20386;-75
2022/12/24 01:35:17;;;;;;;21.15;13.00;;;9.00;99.90;;;;;;4942094;28;20116;-75
2022/12/24 01:38:03;;;;;;;21.13;12.60;;;9.00;99.90;;;;;;4956127;28;20517;-75
2022/12/24 01:43:53;;;;;;;21.58;12.43;;;9.00;99.90;;;;;;4955941;28;20083;-75
2022/12/24 01:46:40;;;;;;;27.20;12.52;;;9.00;99.90;;;;;;4960782;28;20481;-75
2022/12/24 01:49:26;;;;;;;26.58;13.18;;;9.00;99.90;;;;;;4955672;28;20046;-75
2022/12/24 01:52:25;;;;;;;23.10;12.63;;;9.00;99.90;;;;;;4957376;28;20058;-76
2022/12/24 01:55:16;;;;;;;23.00;13.20;;;9.00;99.90;;;;;;4955393;28;20138;-75
2022/12/24 01:58:04;;;;;;;22.42;12.68;;;9.00;99.90;;;;;;4961428;28;20046;-75
2022/12/24 02:00:50;;;;;;;24.40;11.75;;;9.00;99.90;;;;;;4955771;28;20039;-76
2022/12/24 02:03:36;;;;;;;21.52;11.38;;;9.10;99.90;;;;;;4954599;28;20117;-76
2022/12/24 02:06:22;;;;;;;19.45;10.55;;;9.10;99.90;;;;;;4953480;28;20081;-75
2022/12/24 02:09:08;;;;;;;17.98;9.30;;;9.10;99.90;;;;;;4960045;28;20122;-75
2022/12/24 02:11:55;;;;;;;12.15;8.63;;;9.20;99.90;;;;;;4956334;28;20058;-76
2022/12/24 02:14:40;;;;;;;11.25;6.68;;;9.20;99.90;;;;;;4955991;28;20062;-74
2022/12/24 02:17:43;;;;;;;14.25;6.20;;;9.20;99.90;;;;;;4969276;28;20039;-74
2022/12/24 02:21:01;;;;;;;22.03;5.73;;;9.20;99.90;;;;;;4956129;28;20047;-74
2022/12/24 02:24:07;;;;;;;37.38;5.90;;;9.20;99.90;;;;;;4957580;28;20306;-75
2022/12/24 02:27:29;;;;;;;36.85;6.15;;;9.20;99.90;;;;;;4959622;28;20495;-74
2022/12/24 02:30:20;;;;;;;51.00;7.68;;;9.10;99.90;;;;;;4953700;28;20528;-74
2022/12/24 02:33:41;;;;;;;48.10;7.30;;;9.10;99.90;;;;;;4954550;28;20042;-74
2022/12/24 02:36:48;;;;;;;49.45;7.15;;;9.00;99.90;;;;;;4957069;28;20070;-74
2022/12/24 02:39:46;;;;;;;44.50;6.95;;;9.10;99.90;;;;;;4955987;28;20038;-74
2022/12/24 02:42:40;;;;;;;53.38;7.18;;;9.10;99.90;;;;;;4955314;28;20053;-74
2022/12/24 02:45:30;;;;;;;39.28;7.13;;;9.10;99.90;;;;;;4952105;28;20046;-74
2022/12/24 02:48:17;;;;;;;58.58;8.40;;;9.10;99.90;;;;;;4955388;28;20476;-74
2022/12/24 02:51:07;;;;;;;47.78;7.13;;;9.20;99.90;;;;;;4955120;28;20413;-73
2022/12/24 02:53:53;;;;;;;42.10;6.40;;;9.20;99.90;;;;;;4957619;28;20050;-74
2022/12/24 02:56:58;;;;;;;49.35;7.18;;;9.20;99.90;;;;;;4969252;28;20054;-74
2022/12/24 02:59:50;;;;;;;40.25;7.03;;;9.30;99.90;;;;;;4964117;28;20046;-74
2022/12/24 03:02:44;;;;;;;39.60;6.70;;;9.30;99.90;;;;;;4955234;28;20050;-74
2022/12/24 03:05:48;;;;;;;36.55;6.20;;;9.40;99.90;;;;;;4961232;28;20050;-74
2022/12/24 03:09:03;;;;;;;34.88;5.70;;;9.40;99.90;;;;;;4952835;28;20043;-74
2022/12/24 03:12:10;;;;;;;38.25;5.70;;;9.40;99.90;;;;;;4972891;28;20062;-73
2022/12/24 03:14:58;;;;;;;42.70;7.18;;;9.30;99.90;;;;;;4952346;28;20125;-73
2022/12/24 03:17:47;;;;;;;36.47;5.85;;;9.30;99.90;;;;;;4953450;28;20081;-74
2022/12/24 03:20:40;;;;;;;35.45;5.43;;;9.30;99.90;;;;;;4954287;28;20050;-74
2022/12/24 03:23:26;;;;;;;32.83;5.38;;;9.40;99.90;;;;;;4940754;28;20053;-74
2022/12/24 03:26:14;;;;;;;38.60;6.43;;;9.40;99.90;;;;;;4956375;28;20049;-74
2022/12/24 03:29:05;;;;;;;37.28;6.03;;;9.40;99.90;;;;;;4952350;28;20077;-74
2022/12/24 03:31:57;;;;;;;44.58;7.13;;;9.40;99.90;;;;;;4954324;28;20047;-74
2022/12/24 03:34:43;;;;;;;38.40;6.53;;;9.40;99.90;;;;;;4955280;28;20046;-74
2022/12/24 03:37:29;;;;;;;39.72;6.95;;;9.40;99.90;;;;;;4947183;28;20046;-74
2022/12/24 03:40:15;;;;;;;39.60;6.15;;;9.40;99.90;;;;;;4970295;28;20047;-73
2022/12/24 03:43:01;;;;;;;39.05;7.20;;;9.40;99.90;;;;;;4953174;28;20046;-74
2022/12/24 03:45:47;;;;;;;47.50;7.15;;;9.40;99.90;;;;;;4951795;28;20138;-74
2022/12/24 03:48:34;;;;;;;51.15;6.82;;;9.50;99.90;;;;;;4953747;28;20039;-74
2022/12/24 03:51:23;;;;;;;36.08;6.07;;;9.40;99.90;;;;;;4970985;28;20064;-75
2022/12/24 03:54:09;;;;;;;40.03;6.90;;;9.40;99.90;;;;;;4954557;28;20775;-75
2022/12/24 03:56:54;;;;;;;41.42;6.53;;;9.40;99.90;;;;;;4952365;28;20537;-74
2022/12/24 03:59:40;;;;;;;49.47;7.22;;;9.50;99.90;;;;;;4953563;28;20050;-73
2022/12/24 04:02:26;;;;;;;44.05;6.07;;;9.40;99.90;;;;;;4955513;28;20077;-74
2022/12/24 04:05:16;;;;;;;41.75;7.35;;;9.40;99.90;;;;;;4953295;28;20043;-74
2022/12/24 04:08:02;;;;;;;42.92;6.35;;;9.40;99.90;;;;;;4954473;28;20038;-74
2022/12/24 04:10:48;;;;;;;47.22;6.65;;;9.40;99.90;;;;;;4954505;28;20050;-75
2022/12/24 04:13:34;;;;;;;45.80;6.47;;;9.40;99.90;;;;;;4954162;28;20057;-75
2022/12/24 04:16:19;;;;;;;46.70;6.78;;;9.40;99.90;;;;;;4953933;28;20053;-74
2022/12/24 04:19:05;;;;;;;40.47;6.80;;;9.50;99.90;;;;;;4941804;28;20046;-74
2022/12/24 04:21:51;;;;;;;47.63;7.30;;;9.40;99.90;;;;;;4952881;28;20055;-75
2022/12/24 04:24:37;;;;;;;47.30;7.43;;;9.40;99.90;;;;;;4960302;28;20047;-75
2022/12/24 04:27:23;;;;;;;50.22;7.60;;;9.40;99.90;;;;;;4951051;28;20089;-74
2022/12/24 04:30:09;;;;;;;46.72;6.55;;;9.40;99.90;;;;;;4952948;28;20050;-74
2022/12/24 04:32:55;;;;;;;49.90;6.75;;;9.40;99.90;;;;;;4953547;28;20133;-74
2022/12/24 04:35:41;;;;;;;48.70;7.20;;;9.50;99.90;;;;;;4955740;28;20054;-75
2022/12/24 04:38:27;;;;;;;40.78;7.10;;;9.40;99.90;;;;;;4954110;28;20409;-74
2022/12/24 04:41:17;;;;;;;50.17;7.93;;;9.40;99.90;;;;;;4952652;28;20050;-75
2022/12/24 04:44:03;;;;;;;50.67;8.07;;;9.40;99.90;;;;;;4951800;28;20057;-75
2022/12/24 04:46:49;;;;;;;49.47;7.22;;;9.40;99.90;;;;;;4952259;28;20085;-75
2022/12/24 04:49:35;;;;;;;46.88;6.55;;;9.40;99.90;;;;;;4957382;28;20053;-75
2022/12/24 04:52:20;;;;;;;45.00;7.35;;;9.40;99.90;;;;;;4953292;28;20050;-75
2022/12/24 04:55:07;;;;;;;40.03;6.50;;;9.40;99.90;;;;;;4952069;28;20053;-75
2022/12/24 04:57:53;;;;;;;49.90;7.78;;;9.50;99.90;;;;;;4955599;28;20489;-75
2022/12/24 05:00:39;;;;;;;49.08;7.15;;;9.50;99.90;;;;;;4967580;28;20043;-75
2022/12/24 05:03:26;;;;;;;40.72;7.10;;;9.50;99.90;;;;;;4953154;28;20054;-74
2022/12/24 05:06:15;;;;;;;37.67;6.50;;;9.40;99.90;;;;;;4953813;28;20054;-75
2022/12/24 05:09:01;;;;;;;45.90;7.63;;;9.50;99.90;;;;;;4940472;28;20137;-75
2022/12/24 05:11:46;;;;;;;43.83;7.72;;;9.40;99.90;;;;;;4968494;28;20110;-75
2022/12/24 05:14:32;;;;;;;59.28;8.88;;;9.50;99.90;;;;;;4952252;28;20047;-75
2022/12/24 05:17:18;;;;;;;44.20;6.75;;;9.50;99.90;;;;;;4955252;28;21673;-75
2022/12/24 05:20:05;;;;;;;52.20;7.57;;;9.50;99.90;;;;;;4973588;28;20457;-75
2022/12/24 05:29:01;;;;;;;50.70;8.15;;;9.40;99.90;;;;;;4953089;28;20043;-75
2022/12/24 05:31:47;;;;;;;50.03;7.65;;;9.40;99.90;;;;;;4955567;28;20049;-75
2022/12/24 05:34:33;;;;;;;49.78;7.60;;;9.50;99.90;;;;;;4936331;28;20047;-76
2022/12/24 05:37:19;;;;;;;48.78;6.93;;;9.40;99.90;;;;;;4947673;28;20122;-75
2022/12/24 05:40:05;;;;;;;50.55;7.63;;;9.40;99.90;;;;;;4951601;28;20043;-75
2022/12/24 05:42:51;;;;;;;53.88;8.02;;;9.50;99.90;;;;;;4970197;28;20054;-75
2022/12/24 05:45:37;;;;;;;47.47;7.20;;;9.50;99.90;;;;;;4966442;28;20038;-75
2022/12/24 05:48:23;;;;;;;48.05;7.05;;;9.40;99.90;;;;;;4953787;28;20442;-75
2022/12/24 05:51:11;;;;;;;54.25;7.78;;;9.50;99.90;;;;;;4954688;28;20528;-75
2022/12/24 05:53:56;;;;;;;43.85;7.35;;;9.50;99.90;;;;;;4952329;28;20405;-75
2022/12/24 05:56:42;;;;;;;55.30;8.40;;;9.50;99.90;;;;;;4952030;28;20466;-75
2022/12/24 05:59:28;;;;;;;49.92;7.75;;;9.50;99.90;;;;;;4956832;28;20057;-75
2022/12/24 06:02:14;;;;;;;50.22;7.22;;;9.50;99.90;;;;;;4956349;28;20042;-75
2022/12/24 06:05:00;;;;;;;46.75;7.20;;;9.40;99.90;;;;;;4955206;28;20062;-76
2022/12/24 06:07:46;;;;;;;43.75;7.78;;;9.40;99.90;;;;;;4955635;28;20042;-75
2022/12/24 06:10:32;;;;;;;55.05;8.45;;;9.50;99.90;;;;;;4954341;28;20102;-75
2022/12/24 06:13:18;;;;;;;47.88;7.03;;;9.40;99.90;;;;;;4957204;28;20054;-75
2022/12/24 06:16:06;;;;;;;47.53;7.40;;;9.40;99.90;;;;;;4954223;28;20054;-76
2022/12/24 06:18:52;;;;;;;43.45;6.70;;;9.30;99.90;;;;;;4955666;28;20058;-75
2022/12/24 06:21:38;;;;;;;52.47;7.45;;;9.40;99.90;;;;;;4953409;28;20092;-75
2022/12/24 06:24:24;;;;;;;51.45;7.40;;;9.40;99.90;;;;;;4951591;28;20050;-75
2022/12/24 06:27:10;;;;;;;47.55;8.05;;;9.40;99.90;;;;;;4955015;28;20043;-75
2022/12/24 06:29:55;;;;;;;50.03;7.18;;;9.40;99.90;;;;;;4953747;28;20094;-75
2022/12/24 06:32:41;;;;;;;50.67;6.93;;;9.40;99.90;;;;;;4960802;28;20122;-75
2022/12/24 06:35:29;;;;;;;46.95;6.60;;;9.40;99.90;;;;;;4952878;28;20405;-75
2022/12/24 06:38:15;;;;;;;41.67;5.65;;;9.30;99.90;;;;;;4955561;28;20047;-76
2022/12/24 06:41:06;;;;;;;44.97;6.28;;;9.40;99.90;;;;;;4952733;28;20521;-76
2022/12/24 06:43:52;;;;;;;32.92;5.80;;;9.40;99.90;;;;;;4955370;28;20528;-75
2022/12/24 06:46:38;;;;;;;45.85;6.93;;;9.40;99.90;;;;;;4954612;28;20043;-75
2022/12/24 06:49:24;;;;;;;45.25;6.63;;;9.40;99.90;;;;;;4959118;28;20494;-75
2022/12/24 06:52:10;;;;;;;40.70;6.05;;;9.30;99.90;;;;;;4956715;28;20078;-75
2022/12/24 06:54:56;;;;;;;43.28;6.60;;;9.30;99.90;;;;;;4943818;28;20074;-76
2022/12/24 06:57:42;;;;;;;37.50;6.45;;;9.30;99.90;;;;;;4958472;28;20054;-75
2022/12/24 07:00:27;;;;;;;41.72;6.72;;;9.20;99.90;;;;;;4956544;28;20129;-75
2022/12/24 07:03:13;;;;;;;49.63;6.72;;;9.20;99.90;;;;;;4971274;28;20055;-75
2022/12/24 07:06:00;;;;;;;45.60;6.80;;;9.20;99.90;;;;;;4939471;28;20493;-75
2022/12/24 07:08:46;;;;;;;44.00;6.45;;;9.20;99.90;;;;;;4954556;28;20049;-76
2022/12/24 07:11:31;;;;;;;45.92;6.03;;;9.20;99.90;;;;;;4971337;28;20069;-75
2022/12/24 07:14:18;;;;;;;51.25;6.75;;;9.20;99.90;;;;;;4953806;28;20417;-75
2022/12/24 07:17:03;;;;;;;44.85;6.80;;;9.10;99.90;;;;;;4953484;28;20062;-75
2022/12/24 07:19:49;;;;;;;54.17;7.28;;;9.10;99.90;;;;;;4956957;28;20508;-76
2022/12/24 07:22:35;;;;;;;39.20;6.38;;;9.20;99.90;;;;;;4961531;28;20098;-76
2022/12/24 07:25:21;;;;;;;50.20;6.28;;;9.20;99.90;;;;;;4952020;28;20042;-75
2022/12/24 07:28:07;;;;;;;37.85;6.00;;;9.20;99.90;;;;;;4953648;28;20043;-75
2022/12/24 07:30:53;;;;;;;37.38;5.78;;;9.20;99.90;;;;;;4954709;28;20490;-76
2022/12/24 07:33:39;;;;;;;44.63;6.30;;;9.20;99.90;;;;;;4955239;28;20058;-76
2022/12/24 07:36:27;;;;;;;42.70;6.22;;;9.20;99.90;;;;;;4957010;28;20051;-75
2022/12/24 07:39:12;;;;;;;40.20;5.93;;;9.10;99.90;;;;;;4952487;28;20110;-75
2022/12/24 07:41:58;;;;;;;42.20;6.22;;;9.20;99.90;;;;;;4953909;28;20050;-76
2022/12/24 07:44:44;;;;;;;44.08;6.50;;;9.10;99.90;;;;;;4949928;28;20038;-75
2022/12/24 07:47:30;;;;;;;50.80;6.35;;;9.20;99.90;;;;;;4940842;28;20470;-75
2022/12/24 07:50:16;;;;;;;45.20;7.22;;;9.20;99.90;;;;;;4953800;28;20106;-75
2022/12/24 07:53:02;;;;;;;44.42;6.78;;;9.10;99.90;;;;;;4953173;28;20053;-75
2022/12/24 07:55:48;;;;;;;45.40;6.43;;;9.20;99.90;;;;;;4952820;28;20043;-75
2022/12/24 07:58:34;;;;;;;57.75;7.22;;;9.10;99.90;;;;;;4951206;28;20061;-75
2022/12/24 08:01:20;;;;;;;49.67;7.75;;;9.10;99.90;;;;;;4952115;28;20115;-75
2022/12/24 08:04:06;;;;;;;49.63;6.78;;;9.10;99.90;;;;;;4950891;28;20055;-76
2022/12/24 08:06:52;;;;;;;46.25;6.70;;;9.10;99.90;;;;;;4954287;28;20401;-75
2022/12/24 08:09:38;;;;;;;50.05;6.90;;;9.20;99.90;;;;;;4952341;28;20520;-75
2022/12/24 08:12:24;;;;;;;42.55;6.22;;;9.20;99.90;;;;;;4952427;28;20109;-75
2022/12/24 08:15:10;;;;;;;47.88;5.85;;;9.20;99.90;;;;;;4947385;28;20082;-74
2022/12/24 08:17:56;;;;;;;49.20;7.13;;;9.30;99.90;;;;;;4936015;28;20133;-75
2022/12/24 08:20:42;;;;;;;42.70;6.60;;;9.20;99.90;;;;;;4940734;28;20046;-75
2022/12/24 08:23:28;;;;;;;52.90;8.18;;;9.30;99.90;;;;;;4953712;28;20454;-74
2022/12/24 08:26:14;;;;;;;44.13;6.30;;;9.30;99.90;;;;;;4953090;28;20039;-75
2022/12/24 08:29:01;;;;;;;52.75;7.43;;;9.30;99.90;;;;;;4947820;28;20040;-76
2022/12/24 08:31:47;;;;;;;56.63;8.05;;;9.30;99.90;;;;;;4956268;28;20051;-75
2022/12/24 08:34:33;;;;;;;50.83;8.25;;;9.30;99.90;;;;;;4951206;28;20038;-76
2022/12/24 08:37:18;;;;;;;48.80;6.75;;;9.40;99.90;;;;;;4940012;28;20398;-75
2022/12/24 08:40:05;;;;;;;49.95;7.82;;;9.40;99.90;;;;;;4951324;28;20074;-75
2022/12/24 08:42:51;;;;;;;51.05;7.15;;;9.40;99.90;;;;;;4948347;28;20055;-75
2022/12/24 08:45:38;;;;;;;54.15;7.80;;;9.40;99.90;;;;;;4955202;28;20478;-74
2022/12/24 08:48:24;;;;;;;51.10;8.50;;;9.40;99.90;;;;;;4957285;28;20066;-75
2022/12/24 08:51:11;;;;;;;55.17;8.48;;;9.40;99.90;;;;;;4951981;28;20054;-75
2022/12/24 08:53:56;;;;;;;46.35;7.45;;;9.50;99.90;;;;;;4940425;28;20494;-75
2022/12/24 08:56:42;;;;;;;55.70;7.82;;;9.50;99.90;;;;;;4955457;28;20426;-74
2022/12/24 08:59:28;;;;;;;55.80;8.45;;;9.50;99.90;;;;;;4953204;28;20136;-74
2022/12/24 09:02:14;;;;;;;44.03;8.07;;;9.50;99.90;;;;;;4953163;28;20078;-74
2022/12/24 09:05:00;;;;;;;49.28;7.88;;;9.60;99.90;;;;;;4953692;28;20130;-75
2022/12/24 09:07:46;;;;;;;51.88;8.60;;;9.60;99.90;;;;;;4948728;28;20042;-75
2022/12/24 09:10:32;;;;;;;49.50;7.60;;;9.60;99.90;;;;;;4948036;28;20055;-76
2022/12/24 09:13:18;;;;;;;44.20;8.82;;;9.60;99.90;;;;;;4967676;28;20045;-74
2022/12/24 09:16:04;;;;;;;57.40;9.32;;;9.70;99.90;;;;;;4948145;28;20079;-75
2022/12/24 09:18:50;;;;;;;47.90;8.30;;;9.60;99.90;;;;;;4950733;28;20042;-74
2022/12/24 09:21:36;;;;;;;47.22;7.78;;;9.70;99.90;;;;;;4953436;28;20048;-75
2022/12/24 09:24:22;;;;;;;45.65;7.07;;;9.70;99.90;;;;;;4950438;28;20398;-75
2022/12/24 09:27:08;;;;;;;48.15;8.10;;;9.70;99.90;;;;;;4936505;28;20047;-76
2022/12/24 09:29:54;;;;;;;43.50;7.43;;;9.80;99.90;;;;;;4967510;28;20114;-77
2022/12/24 09:32:40;;;;;;;56.42;7.70;;;9.70;99.90;;;;;;4967981;28;20576;-75
2022/12/24 09:35:26;;;;;;;50.00;7.65;;;9.70;99.90;;;;;;4944507;28;20086;-75
2022/12/24 09:38:11;;;;;;;47.08;7.15;;;9.70;99.90;;;;;;4933754;28;20134;-75
2022/12/24 09:40:59;;;;;;;44.30;7.50;;;9.80;99.90;;;;;;4957496;28;20066;-75
2022/12/24 09:43:50;;;;;;;44.60;7.63;;;9.80;99.90;;;;;;4964783;28;20047;-74
2022/12/24 09:46:42;;;;;;;45.47;7.75;;;9.80;99.90;;;;;;4956811;28;20587;-74
2022/12/24 09:49:40;;;;;;;50.55;7.88;;;9.90;99.90;;;;;;4951197;28;20081;-74
2022/12/24 09:52:39;;;;;;;22.92;4.43;;;9.80;99.90;;;;;;4955887;28;20052;-75
2022/12/24 09:55:50;;;;;;;27.77;5.25;;;9.80;99.90;;;;;;4951917;28;20102;-74
2022/12/24 09:59:02;;;;;;;31.20;5.57;;;9.70;99.90;;;;;;4945000;28;20049;-74
2022/12/24 10:01:51;;;;;;;40.22;6.43;;;9.70;99.90;;;;;;4955527;28;20074;-74
2022/12/24 10:04:36;;;;;;;42.38;6.68;;;9.70;99.90;;;;;;4957316;28;20047;-74
2022/12/24 10:08:01;;;;;;;44.53;6.65;;;9.70;99.90;;;;;;4944866;28;20090;-74
2022/12/24 10:10:53;;;;;;;48.50;7.53;;;9.80;99.90;;;;;;4903782;29;20131;-75
2022/12/24 10:14:28;;;;;;;37.72;6.30;;;9.80;99.90;;;;;;4893499;29;20088;-73
2022/12/24 10:17:48;;;;;;;36.70;6.38;;;9.80;99.90;;;;;;4880617;28;20047;-73
2022/12/24 10:20:51;;;;;;;42.97;6.10;;;9.80;99.90;;;;;;4946409;28;20054;-74
2022/12/24 10:23:54;;;;;;;31.85;6.05;;;9.80;99.90;;;;;;4953269;28;20055;-73
2022/12/24 10:27:13;;;;;;;35.92;6.35;;;9.70;99.90;;;;;;4963566;28;20343;-73
2022/12/24 10:30:05;;;;;;;34.88;5.90;;;9.80;99.90;;;;;;4953735;28;20057;-73
2022/12/24 10:32:52;;;;;;;37.70;7.32;;;9.80;99.90;;;;;;4963324;28;20054;-74
2022/12/24 10:35:46;;;;;;;45.08;7.22;;;9.80;99.90;;;;;;4956058;28;20051;-73
2022/12/24 10:38:32;;;;;;;49.80;7.57;;;9.80;99.90;;;;;;4967664;28;20042;-73
2022/12/24 10:41:18;;;;;;;42.40;7.15;;;9.80;99.90;;;;;;4975889;28;20159;-73
2022/12/24 10:44:04;;;;;;;46.80;7.80;;;9.80;99.90;;;;;;4953749;28;20047;-72
2022/12/24 10:46:50;;;;;;;49.80;7.82;;;9.80;99.90;;;;;;4953831;28;20113;-73
2022/12/24 10:49:59;;;;;;;39.15;7.05;;;9.80;99.90;;;;;;4960881;28;21350;-74
2022/12/24 10:52:45;;;;;;;49.60;8.32;;;9.90;99.90;;;;;;4953457;28;20058;-74
2022/12/24 10:55:31;;;;;;;48.40;7.65;;;9.90;99.90;;;;;;4956089;28;20058;-73
2022/12/24 10:58:19;;;;;;;64.18;9.25;;;9.90;99.90;;;;;;4952651;28;20066;-74
2022/12/24 11:01:04;;;;;;;40.00;7.20;;;9.90;99.90;;;;;;4959862;28;20054;-73
2022/12/24 11:04:01;;;;;;;40.67;6.93;;;9.90;99.90;;;;;;4964345;28;20502;-72
2022/12/24 11:07:03;;;;;;;54.40;8.02;;;9.90;99.90;;;;;;4953092;28;20043;-72
2022/12/24 11:10:05;;;;;;;49.03;7.90;;;9.90;99.90;;;;;;4956161;28;20043;-73
2022/12/24 11:12:51;;;;;;;41.92;7.95;;;9.90;99.90;;;;;;4965096;28;20065;-73
2022/12/24 11:15:37;;;;;;;45.70;7.13;;;9.90;99.90;;;;;;4953987;28;20137;-73
2022/12/24 11:18:23;;;;;;;49.58;7.68;;;9.90;99.90;;;;;;4954268;28;20574;-73
2022/12/24 11:21:09;;;;;;;45.22;7.60;;;9.90;99.90;;;;;;4948945;28;20402;-73
2022/12/24 11:24:02;;;;;;;49.67;8.20;;;9.90;99.90;;;;;;4953416;28;20043;-74
2022/12/24 11:26:48;;;;;;;51.70;7.50;;;9.90;99.90;;;;;;4954174;28;20502;-73
2022/12/24 11:29:34;;;;;;;45.20;7.40;;;9.90;99.90;;;;;;4970473;28;20076;-74
2022/12/24 11:32:21;;;;;;;51.20;8.05;;;9.90;99.90;;;;;;4956888;28;20050;-74
2022/12/24 11:35:16;;;;;;;45.97;7.88;;;10.00;99.90;;;;;;4954041;28;20055;-74
2022/12/24 11:38:02;;;;;;;47.13;6.95;;;10.00;99.90;;;;;;4953260;28;20054;-73
2022/12/24 11:40:56;;;;;;;49.60;6.88;;;10.00;99.90;;;;;;4952824;28;20051;-73
2022/12/24 11:43:57;;;;;;;32.80;5.60;;;10.00;99.90;;;;;;4962189;28;20051;-73
2022/12/24 11:46:45;;;;;;;32.80;6.43;;;10.10;99.90;;;;;;4957654;28;20038;-74
2022/12/24 11:49:31;;;;;;;43.08;7.63;;;10.10;99.90;;;;;;4955225;28;20055;-73
2022/12/24 11:52:23;;;;;;;44.25;6.85;;;10.10;99.90;;;;;;4953127;28;20469;-74
2022/12/24 11:55:23;;;;;;;39.58;6.07;;;10.10;99.90;;;;;;4950299;28;20062;-73
2022/12/24 11:58:22;;;;;;;43.45;7.03;;;10.00;99.90;;;;;;4951553;28;20066;-74
2022/12/24 12:01:39;;;;;;;45.17;7.80;;;10.10;99.90;;;;;;4946810;28;20646;-74
2022/12/24 12:04:29;;;;;;;37.97;6.78;;;10.10;99.90;;;;;;4943525;28;20047;-74
2022/12/24 12:07:23;;;;;;;40.72;6.05;;;10.10;99.90;;;;;;4944648;28;20051;-74
2022/12/24 12:10:21;;;;;;;41.42;6.30;;;10.10;99.90;;;;;;4948207;28;20050;-74
2022/12/24 12:13:31;;;;;;;38.17;6.22;;;10.10;99.90;;;;;;4938387;28;20103;-74
2022/12/24 12:16:24;;;;;;;43.40;7.25;;;10.10;99.90;;;;;;4953898;28;20039;-74
2022/12/24 12:19:11;;;;;;;37.15;6.13;;;10.10;99.90;;;;;;4953328;28;20042;-73
2022/12/24 12:21:59;;;;;;;43.15;6.82;;;10.10;99.90;;;;;;4953719;28;20038;-73
2022/12/24 12:24:50;;;;;;;46.08;6.18;;;10.00;99.90;;;;;;4960996;28;20042;-73
2022/12/24 12:27:55;;;;;;;36.72;5.18;;;10.10;99.90;;;;;;5075800;27;20403;-73
2022/12/24 12:30:43;;;;;;;32.75;5.90;;;10.00;99.90;;;;;;5061209;28;20052;-74
2022/12/24 12:33:52;;;;;;;38.65;6.53;;;10.00;99.90;;;;;;5062989;28;20049;-75
2022/12/24 12:36:43;;;;;;;35.88;6.50;;;10.00;99.90;;;;;;5055459;28;20044;-74
2022/12/24 12:39:30;;;;;;;42.10;6.13;;;10.00;99.90;;;;;;5058089;28;20049;-73
2022/12/24 12:42:31;;;;;;;34.22;6.20;;;10.00;99.90;;;;;;5045311;28;20044;-73
2022/12/24 12:45:43;;;;;;;39.97;6.15;;;10.00;99.90;;;;;;5060242;28;20036;-73
2022/12/24 12:48:55;;;;;;;40.20;6.03;;;10.00;99.90;;;;;;5059287;28;20052;-73
2022/12/24 12:52:03;;;;;;;32.97;5.90;;;10.10;99.90;;;;;;5059618;28;20052;-73
2022/12/24 12:55:01;;;;;;;42.17;6.55;;;10.10;99.90;;;;;;5059529;28;20045;-73
2022/12/24 12:57:50;;;;;;;35.70;6.50;;;10.10;99.90;;;;;;5062421;28;20670;-74
2022/12/24 13:00:40;;;;;;;35.42;5.95;;;10.10;99.90;;;;;;5059912;28;20507;-73
2022/12/24 13:03:57;;;;;;;37.10;5.85;;;10.10;99.90;;;;;;5063058;28;20067;-74
2022/12/24 13:07:08;;;;;;;36.90;5.93;;;10.10;99.90;;;;;;5058147;28;20051;-74
2022/12/24 13:10:19;;;;;;;35.90;5.47;;;10.20;99.90;;;;;;5058869;28;20071;-74
2022/12/24 13:13:21;;;;;;;42.83;6.60;;;10.30;99.90;;;;;;5053522;28;21952;-73
2022/12/24 13:16:45;;;;;;;30.60;5.30;;;10.30;99.90;;;;;;5061371;28;20090;-73
2022/12/24 13:19:43;;;;;;;29.45;6.03;;;10.30;99.90;;;;;;4991524;28;20467;-74
2022/12/24 13:22:29;;;;;;;32.20;5.40;;;10.30;99.90;;;;;;5041611;28;20063;-74
2022/12/24 13:25:21;;;;;;;36.35;6.05;;;10.20;99.90;;;;;;5063008;28;20495;-73
2022/12/24 13:28:32;;;;;;;26.10;4.80;;;10.20;99.90;;;;;;5058721;28;20049;-73
2022/12/24 13:31:23;;;;;;;30.70;5.47;;;10.20;99.90;;;;;;5055956;28;20091;-75
2022/12/24 13:34:34;;;;;;;28.75;4.75;;;10.20;99.90;;;;;;5057093;28;20620;-73
2022/12/24 13:37:29;;;;;;;28.80;4.43;;;10.30;99.90;;;;;;5056336;28;20140;-74
2022/12/24 13:40:25;;;;;;;30.88;5.35;;;10.30;99.90;;;;;;5045101;28;20043;-74
2022/12/24 13:43:11;;;;;;;27.17;5.13;;;10.30;99.90;;;;;;5046932;28;20481;-76
2022/12/24 13:45:57;;;;;;;25.63;4.97;;;10.30;99.90;;;;;;5048175;28;20123;-73
2022/12/24 13:48:44;;;;;;;28.95;6.03;;;10.20;99.90;;;;;;5046659;28;20410;-74
2022/12/24 13:51:32;;;;;;;31.17;5.53;;;10.30;99.90;;;;;;5048600;28;20199;-76
2022/12/24 13:54:24;;;;;;;29.80;5.18;;;10.30;99.90;;;;;;5048362;28;20163;-72
2022/12/24 13:57:38;;;;;;;29.40;4.50;;;10.30;99.90;;;;;;5050253;28;20040;-72
2022/12/24 14:00:30;;;;;;;25.08;4.20;;;10.20;99.90;;;;;;5046016;28;20048;-75
2022/12/24 14:03:39;;;;;;;32.47;5.43;;;10.20;99.90;;;;;;5049634;28;20410;-74
2022/12/24 14:06:35;;;;;;;24.48;4.45;;;10.10;99.90;;;;;;5043718;28;20051;-76
2022/12/24 14:09:24;;;;;;;28.70;4.80;;;10.10;99.90;;;;;;5042258;28;20556;-75
2022/12/24 14:12:10;;;;;;;27.48;4.82;;;10.00;99.90;;;;;;5042839;28;20052;-73
2022/12/24 14:14:56;;;;;;;26.52;4.75;;;10.00;99.90;;;;;;5042899;28;20403;-74
2022/12/24 14:17:46;;;;;;;25.35;5.40;;;10.00;99.90;;;;;;5041954;28;20107;-73
2022/12/24 14:20:32;;;;;;;18.45;4.22;;;9.90;99.90;;;;;;5042286;28;20118;-75
2022/12/24 14:23:51;;;;;;;28.95;5.00;;;9.90;99.90;;;;;;5039571;28;20574;-74
2022/12/24 14:26:46;;;;;;;25.67;4.53;;;9.70;99.90;;;;;;5042295;28;20037;-75
2022/12/24 14:29:38;;;;;;;28.73;4.85;;;9.80;99.90;;;;;;5045332;28;20072;-74
2022/12/24 14:32:36;;;;;;;26.88;5.10;;;9.70;99.90;;;;;;5048405;28;20135;-74
2022/12/24 14:35:34;;;;;;;26.73;4.55;;;9.80;99.90;;;;;;5042159;28;20045;-75
2022/12/24 14:38:21;;;;;;;23.10;4.85;;;9.80;99.90;;;;;;5034264;28;20040;-75
2022/12/24 14:41:16;;;;;;;22.15;4.50;;;9.80;99.90;;;;;;5070410;28;20478;-75
2022/12/24 14:44:27;;;;;;;26.80;4.43;;;9.80;99.90;;;;;;5054929;28;20048;-75
2022/12/24 14:47:44;;;;;;;23.67;4.25;;;9.70;99.90;;;;;;5067844;28;20417;-75
2022/12/24 14:50:43;;;;;;;30.35;4.68;;;9.70;99.90;;;;;;5083106;28;20097;-73
2022/12/24 14:53:52;;;;;;;27.90;4.57;;;9.70;99.90;;;;;;5068526;28;20474;-75
2022/12/24 14:56:38;;;;;;;27.50;4.75;;;9.70;99.90;;;;;;5069663;28;20108;-75